createdAt,value
2018-08-18T00:00:08.274Z,0
2018-08-18T00:00:48.602Z,0
2018-08-18T00:01:29.027Z,0
2018-08-18T00:02:09.439Z,0
2018-08-18T00:02:49.788Z,0
2018-08-18T00:03:30.215Z,0
2018-08-18T00:04:10.595Z,0
2018-08-18T00:04:50.994Z,0
2018-08-18T00:05:31.379Z,0
2018-08-18T00:06:11.808Z,0
2018-08-18T00:06:52.270Z,0
2018-08-18T00:07:32.611Z,0
2018-08-18T00:08:13.001Z,0
2018-08-18T00:08:53.374Z,0
2018-08-18T00:09:33.754Z,0
2018-08-18T00:10:14.215Z,0
2018-08-18T00:10:54.557Z,0
2018-08-18T00:11:34.940Z,0
2018-08-18T00:12:15.348Z,0
2018-08-18T00:12:55.827Z,0
2018-08-18T00:13:36.209Z,0
2018-08-18T00:14:16.569Z,0
2018-08-18T00:14:56.928Z,0
2018-08-18T00:15:37.367Z,0
2018-08-18T00:16:17.816Z,0
2018-08-18T00:16:58.199Z,0
2018-08-18T00:17:38.561Z,0
2018-08-18T00:18:19.014Z,0
2018-08-18T00:18:59.338Z,0
2018-08-18T00:19:39.803Z,0
2018-08-18T00:20:20.185Z,0
2018-08-18T00:21:00.550Z,0
2018-08-18T00:21:40.964Z,0
2018-08-18T00:22:21.379Z,0
2018-08-18T00:23:01.740Z,0
2018-08-18T00:23:42.097Z,0
2018-08-18T00:24:22.488Z,0
2018-08-18T00:25:02.919Z,0
2018-08-18T00:25:43.331Z,0
2018-08-18T00:26:23.651Z,0
2018-08-18T00:27:04.136Z,0
2018-08-18T00:27:44.478Z,0
2018-08-18T00:28:24.887Z,0
2018-08-18T00:29:05.294Z,0
2018-08-18T00:29:45.684Z,0
2018-08-18T00:30:26.114Z,0
2018-08-18T00:31:06.455Z,0
2018-08-18T00:31:46.852Z,0
2018-08-18T00:32:27.283Z,0
2018-08-18T00:33:07.618Z,0
2018-08-18T00:33:48.042Z,0
2018-08-18T00:34:28.484Z,0
2018-08-18T00:35:08.863Z,0
2018-08-18T00:35:49.298Z,0
2018-08-18T00:36:29.675Z,0
2018-08-18T00:37:10.054Z,0
2018-08-18T00:37:50.452Z,0
2018-08-18T00:38:30.868Z,0
2018-08-18T00:39:11.260Z,0
2018-08-18T00:39:51.682Z,0
2018-08-18T00:40:32.063Z,0
2018-08-18T00:41:12.500Z,0
2018-08-18T00:41:52.898Z,0
2018-08-18T00:42:33.294Z,0
2018-08-18T00:43:13.705Z,0
2018-08-18T00:43:54.076Z,0
2018-08-18T00:44:34.517Z,0
2018-08-18T00:45:14.960Z,0
2018-08-18T00:45:55.275Z,0
2018-08-18T00:46:35.684Z,0
2018-08-18T00:47:16.123Z,0
2018-08-18T00:47:56.501Z,0
2018-08-18T00:48:36.895Z,0
2018-08-18T00:49:17.311Z,0
2018-08-18T00:49:57.711Z,0
2018-08-18T00:50:38.148Z,0
2018-08-18T00:51:18.538Z,0
2018-08-18T00:51:58.901Z,0
2018-08-18T00:52:39.317Z,0
2018-08-18T00:53:19.692Z,0
2018-08-18T00:54:00.106Z,0
2018-08-18T00:54:40.536Z,0
2018-08-18T00:55:20.898Z,0
2018-08-18T00:56:01.292Z,0
2018-08-18T00:56:41.675Z,0
2018-08-18T00:57:22.086Z,0
2018-08-18T00:58:02.488Z,0
2018-08-18T00:58:42.943Z,0
2018-08-18T00:59:23.264Z,0
2018-08-18T01:00:03.669Z,0
2018-08-18T01:00:44.057Z,0
2018-08-18T01:01:24.475Z,0
2018-08-18T01:02:04.808Z,0
2018-08-18T01:02:45.245Z,0
2018-08-18T01:03:25.606Z,0
2018-08-18T01:04:06.005Z,0
2018-08-18T01:04:46.404Z,0
2018-08-18T01:05:26.848Z,0
2018-08-18T01:06:07.207Z,0
2018-08-18T01:06:47.597Z,0
2018-08-18T01:07:27.981Z,0
2018-08-18T01:08:08.403Z,0
2018-08-18T01:08:48.770Z,0
2018-08-18T01:09:29.174Z,0
2018-08-18T01:10:09.612Z,0
2018-08-18T01:10:50.018Z,0
2018-08-18T01:11:30.417Z,0
2018-08-18T01:12:11.004Z,0
2018-08-18T01:12:51.231Z,0
2018-08-18T01:13:31.678Z,0
2018-08-18T01:14:12.012Z,0
2018-08-18T01:14:52.413Z,0
2018-08-18T01:15:32.815Z,0
2018-08-18T01:16:13.155Z,0
2018-08-18T01:16:53.608Z,0
2018-08-18T01:17:34.058Z,0
2018-08-18T01:18:14.466Z,0
2018-08-18T01:18:54.817Z,0
2018-08-18T01:19:35.229Z,0
2018-08-18T01:20:15.661Z,0
2018-08-18T01:20:56.008Z,0
2018-08-18T01:21:36.439Z,0
2018-08-18T01:22:16.800Z,0
2018-08-18T01:22:57.189Z,0
2018-08-18T01:23:37.604Z,0
2018-08-18T01:24:18.007Z,0
2018-08-18T01:26:16.837Z,0
2018-08-18T01:26:56.667Z,0
2018-08-18T01:27:37.058Z,0
2018-08-18T01:28:17.519Z,0
2018-08-18T01:28:57.880Z,0
2018-08-18T01:29:38.288Z,0
2018-08-18T01:30:18.711Z,0
2018-08-18T01:30:59.070Z,0
2018-08-18T01:31:39.444Z,0
2018-08-18T01:32:19.840Z,0
2018-08-18T01:33:00.257Z,0
2018-08-18T01:33:40.620Z,0
2018-08-18T01:34:20.978Z,0
2018-08-18T01:35:01.422Z,0
2018-08-18T01:35:41.765Z,0
2018-08-18T01:36:22.227Z,0
2018-08-18T01:37:02.651Z,0
2018-08-18T01:37:43.012Z,0
2018-08-18T01:38:23.416Z,0
2018-08-18T01:39:03.799Z,0
2018-08-18T01:39:44.207Z,0
2018-08-18T01:40:24.634Z,0
2018-08-18T01:41:05.017Z,0
2018-08-18T01:41:45.395Z,0
2018-08-18T01:42:25.784Z,0
2018-08-18T01:43:06.171Z,0
2018-08-18T01:43:46.638Z,0
2018-08-18T01:44:27.010Z,0
2018-08-18T01:45:07.445Z,0
2018-08-18T01:45:47.782Z,0
2018-08-18T01:46:28.172Z,0
2018-08-18T01:47:08.566Z,0
2018-08-18T01:47:48.901Z,0
2018-08-18T01:48:29.307Z,0
2018-08-18T01:49:09.744Z,0
2018-08-18T01:49:50.117Z,0
2018-08-18T01:50:30.567Z,0
2018-08-18T01:51:10.957Z,0
2018-08-18T01:51:51.330Z,0
2018-08-18T01:52:31.750Z,0
2018-08-18T01:53:12.124Z,0
2018-08-18T01:53:52.556Z,0
2018-08-18T01:54:32.917Z,0
2018-08-18T01:55:13.338Z,0
2018-08-18T01:55:53.737Z,0
2018-08-18T01:56:34.068Z,0
2018-08-18T01:57:14.442Z,0
2018-08-18T01:57:54.888Z,0
2018-08-18T01:58:35.285Z,0
2018-08-18T01:59:15.644Z,0
2018-08-18T01:59:56.015Z,0
2018-08-18T02:00:36.413Z,0
2018-08-18T02:01:16.805Z,0
2018-08-18T02:01:57.246Z,0
2018-08-18T02:02:37.624Z,0
2018-08-18T02:03:18.066Z,0
2018-08-18T02:03:58.428Z,0
2018-08-18T02:04:38.886Z,0
2018-08-18T02:07:07.178Z,0
2018-08-18T02:07:47.201Z,0
2018-08-18T02:08:27.697Z,0
2018-08-18T02:09:08.005Z,0
2018-08-18T02:09:48.379Z,0
2018-08-18T02:10:28.880Z,0
2018-08-18T02:11:09.258Z,0
2018-08-18T02:11:49.610Z,0
2018-08-18T02:12:30.010Z,0
2018-08-18T02:13:10.397Z,0
2018-08-18T02:13:50.795Z,0
2018-08-18T02:14:31.192Z,0
2018-08-18T02:15:11.620Z,0
2018-08-18T02:15:51.962Z,0
2018-08-18T02:16:32.376Z,0
2018-08-18T02:17:12.767Z,0
2018-08-18T02:17:53.136Z,0
2018-08-18T02:18:33.528Z,0
2018-08-18T02:19:13.938Z,0
2018-08-18T02:19:54.408Z,0
2018-08-18T02:20:34.763Z,0
2018-08-18T02:21:15.157Z,0
2018-08-18T02:21:55.594Z,0
2018-08-18T02:22:35.968Z,0
2018-08-18T02:23:16.372Z,0
2018-08-18T02:23:56.718Z,0
2018-08-18T02:24:37.122Z,0
2018-08-18T02:25:17.549Z,0
2018-08-18T02:25:57.913Z,0
2018-08-18T02:26:38.312Z,0
2018-08-18T02:27:18.729Z,0
2018-08-18T02:27:59.143Z,0
2018-08-18T02:28:39.595Z,0
2018-08-18T02:29:19.958Z,0
2018-08-18T02:30:00.415Z,0
2018-08-18T02:30:40.706Z,0
2018-08-18T02:31:21.092Z,0
2018-08-18T02:32:01.490Z,0
2018-08-18T02:32:41.891Z,0
2018-08-18T02:33:22.340Z,0
2018-08-18T02:34:02.715Z,0
2018-08-18T02:34:43.112Z,0
2018-08-18T02:35:23.476Z,0
2018-08-18T02:36:03.877Z,0
2018-08-18T02:36:44.355Z,0
2018-08-18T02:37:24.753Z,0
2018-08-18T02:38:05.091Z,0
2018-08-18T02:38:45.526Z,0
2018-08-18T02:39:25.951Z,0
2018-08-18T02:40:06.400Z,0
2018-08-18T02:40:46.752Z,0
2018-08-18T02:41:27.131Z,0
2018-08-18T02:42:07.539Z,0
2018-08-18T02:42:47.973Z,0
2018-08-18T02:43:28.339Z,0
2018-08-18T02:44:08.733Z,0
2018-08-18T02:44:49.142Z,0
2018-08-18T02:45:29.589Z,0
2018-08-18T02:46:10.001Z,0
2018-08-18T02:46:50.350Z,0
2018-08-18T02:47:30.739Z,0
2018-08-18T02:48:11.100Z,0
2018-08-18T02:48:51.539Z,0
2018-08-18T02:49:31.912Z,0
2018-08-18T02:50:12.331Z,0
2018-08-18T02:50:52.687Z,0
2018-08-18T02:51:33.117Z,0
2018-08-18T02:52:13.509Z,0
2018-08-18T02:52:53.921Z,0
2018-08-18T02:53:34.363Z,0
2018-08-18T02:54:14.778Z,0
2018-08-18T02:54:55.172Z,0
2018-08-18T02:55:35.534Z,0
2018-08-18T02:56:15.954Z,0
2018-08-18T02:56:56.369Z,0
2018-08-18T02:57:36.781Z,0
2018-08-18T02:58:17.179Z,0
2018-08-18T02:58:57.594Z,0
2018-08-18T02:59:37.993Z,0
2018-08-18T03:00:18.404Z,0
2018-08-18T03:00:58.812Z,0
2018-08-18T03:01:39.223Z,0
2018-08-18T03:02:19.633Z,0
2018-08-18T03:03:00.082Z,0
2018-08-18T03:03:40.430Z,0
2018-08-18T03:04:20.834Z,0
2018-08-18T03:05:01.231Z,0
2018-08-18T03:05:41.638Z,0
2018-08-18T03:06:22.080Z,0
2018-08-18T03:07:02.454Z,0
2018-08-18T03:07:42.881Z,0
2018-08-18T03:08:23.258Z,0
2018-08-18T03:09:03.640Z,0
2018-08-18T03:09:44.045Z,0
2018-08-18T03:10:24.456Z,0
2018-08-18T03:11:04.868Z,0
2018-08-18T03:11:45.283Z,0
2018-08-18T03:12:25.711Z,0
2018-08-18T03:13:06.147Z,0
2018-08-18T03:13:46.507Z,0
2018-08-18T03:14:26.964Z,0
2018-08-18T03:15:07.381Z,0
2018-08-18T03:15:47.748Z,0
2018-08-18T03:16:28.136Z,0
2018-08-18T03:17:08.546Z,0
2018-08-18T03:17:48.900Z,0
2018-08-18T03:18:29.303Z,0
2018-08-18T03:19:09.695Z,0
2018-08-18T03:19:50.147Z,0
2018-08-18T03:20:30.510Z,0
2018-08-18T03:21:10.916Z,0
2018-08-18T03:21:51.300Z,0
2018-08-18T03:22:31.747Z,0
2018-08-18T03:23:12.153Z,0
2018-08-18T03:23:52.517Z,0
2018-08-18T03:24:32.921Z,0
2018-08-18T03:25:13.376Z,0
2018-08-18T03:25:53.711Z,0
2018-08-18T03:26:34.093Z,0
2018-08-18T03:27:14.533Z,0
2018-08-18T03:27:54.931Z,0
2018-08-18T03:28:35.323Z,0
2018-08-18T03:29:15.709Z,0
2018-08-18T03:29:56.092Z,0
2018-08-18T03:30:36.521Z,0
2018-08-18T03:31:16.919Z,0
2018-08-18T03:31:57.330Z,0
2018-08-18T03:32:37.752Z,0
2018-08-18T03:33:18.093Z,0
2018-08-18T03:33:58.506Z,0
2018-08-18T03:34:38.941Z,0
2018-08-18T03:35:19.316Z,0
2018-08-18T03:35:59.693Z,0
2018-08-18T03:36:40.156Z,0
2018-08-18T03:37:20.516Z,0
2018-08-18T03:38:00.892Z,0
2018-08-18T03:38:41.333Z,0
2018-08-18T03:39:21.711Z,0
2018-08-18T03:40:02.073Z,0
2018-08-18T03:40:42.506Z,0
2018-08-18T03:41:22.891Z,0
2018-08-18T03:42:03.279Z,0
2018-08-18T03:42:43.677Z,0
2018-08-18T03:43:24.099Z,0
2018-08-18T03:44:04.455Z,0
2018-08-18T03:46:02.307Z,0
2018-08-18T03:46:42.637Z,0
2018-08-18T03:47:22.982Z,0
2018-08-18T03:48:03.409Z,0
2018-08-18T03:48:43.855Z,0
2018-08-18T03:49:24.222Z,0
2018-08-18T03:50:04.632Z,0
2018-08-18T03:50:45.061Z,0
2018-08-18T03:51:25.450Z,0
2018-08-18T03:52:05.856Z,0
2018-08-18T03:52:46.294Z,0
2018-08-18T03:53:26.694Z,0
2018-08-18T03:54:07.091Z,0
2018-08-18T03:54:47.457Z,4
2018-08-18T03:55:27.898Z,4
2018-08-18T03:56:08.296Z,0
2018-08-18T03:56:48.754Z,0
2018-08-18T03:57:29.088Z,4
2018-08-18T03:58:09.490Z,4
2018-08-18T03:58:49.916Z,0
2018-08-18T03:59:30.290Z,4
2018-08-18T04:00:10.768Z,4
2018-08-18T04:00:51.086Z,4
2018-08-18T04:01:31.528Z,4
2018-08-18T04:02:11.868Z,4
2018-08-18T04:02:52.259Z,8
2018-08-18T04:03:32.668Z,8
2018-08-18T04:04:13.099Z,8
2018-08-18T04:04:53.506Z,8
2018-08-18T04:05:33.925Z,8
2018-08-18T04:06:14.315Z,12
2018-08-18T04:06:54.780Z,12
2018-08-18T04:07:35.077Z,12
2018-08-18T04:08:15.478Z,12
2018-08-18T04:08:55.912Z,12
2018-08-18T04:09:36.365Z,16
2018-08-18T04:10:16.700Z,16
2018-08-18T04:10:57.090Z,16
2018-08-18T04:11:37.512Z,20
2018-08-18T04:12:17.964Z,20
2018-08-18T04:12:58.319Z,24
2018-08-18T04:13:38.689Z,24
2018-08-18T04:14:19.126Z,32
2018-08-18T04:14:59.521Z,32
2018-08-18T04:15:39.925Z,36
2018-08-18T04:16:20.348Z,40
2018-08-18T04:17:00.730Z,40
2018-08-18T04:17:41.133Z,44
2018-08-18T04:18:21.544Z,48
2018-08-18T04:19:02.058Z,52
2018-08-18T04:19:42.374Z,56
2018-08-18T04:20:22.807Z,56
2018-08-18T04:21:03.223Z,64
2018-08-18T04:21:43.606Z,68
2018-08-18T04:24:13.279Z,80
2018-08-18T04:24:53.517Z,84
2018-08-18T04:25:33.973Z,92
2018-08-18T04:26:14.381Z,96
2018-08-18T04:26:54.764Z,104
2018-08-18T05:10:06.073Z,2304
2018-08-18T05:10:46.438Z,2404
2018-08-18T05:11:26.970Z,2528
2018-08-18T05:12:07.263Z,2628
2018-08-18T05:12:47.657Z,2632
2018-08-18T05:13:28.048Z,2900
2018-08-18T05:14:08.489Z,2984
2018-08-18T05:14:48.883Z,2984
2018-08-18T05:15:29.242Z,3304
2018-08-18T05:16:09.658Z,3660
2018-08-18T05:16:50.055Z,3916
2018-08-18T05:17:30.457Z,4088
2018-08-18T05:18:10.883Z,4320
2018-08-18T05:18:51.326Z,4384
2018-08-18T05:19:31.680Z,4452
2018-08-18T05:20:12.117Z,4672
2018-08-18T05:20:52.488Z,4836
2018-08-18T05:21:32.922Z,4928
2018-08-18T05:22:13.327Z,5260
2018-08-18T05:22:53.739Z,5408
2018-08-18T05:23:34.223Z,5404
2018-08-18T05:24:14.559Z,5604
2018-08-18T05:24:54.945Z,5628
2018-08-18T05:25:35.298Z,5904
2018-08-18T05:26:15.724Z,5964
2018-08-18T05:29:37.166Z,6696
2018-08-18T05:30:17.541Z,7212
2018-08-18T05:30:57.927Z,7340
2018-08-18T05:31:38.287Z,7808
2018-08-18T05:32:18.722Z,7880
2018-08-18T05:32:59.089Z,8052
2018-08-18T05:33:39.487Z,8556
2018-08-18T05:34:19.946Z,8704
2018-08-18T05:35:00.311Z,8648
2018-08-18T05:35:40.706Z,8884
2018-08-18T05:36:21.171Z,9472
2018-08-18T05:37:01.545Z,9548
2018-08-18T05:37:41.983Z,9996
2018-08-18T05:38:22.355Z,10032
2018-08-18T05:39:02.763Z,10220
2018-08-18T05:39:43.195Z,10240
2018-08-18T05:40:23.576Z,10656
2018-08-18T05:41:03.994Z,10880
2018-08-18T05:41:44.377Z,10528
2018-08-18T05:42:24.780Z,10912
2018-08-18T05:43:05.251Z,11584
2018-08-18T05:43:45.641Z,12224
2018-08-18T05:44:26.032Z,12288
2018-08-18T05:45:06.504Z,12608
2018-08-18T05:45:46.838Z,13088
2018-08-18T05:46:27.261Z,13440
2018-08-18T05:47:07.710Z,13344
2018-08-18T05:47:48.124Z,14336
2018-08-18T05:48:28.505Z,14048
2018-08-18T05:49:08.968Z,14208
2018-08-18T05:49:49.397Z,14400
2018-08-18T05:50:29.745Z,14688
2018-08-18T05:51:10.154Z,15360
2018-08-18T05:51:50.569Z,15424
2018-08-18T05:52:30.969Z,15808
2018-08-18T05:55:04.955Z,16224
2018-08-18T05:55:45.401Z,16416
2018-08-18T05:56:25.755Z,16672
2018-08-18T05:57:06.172Z,17088
2018-08-18T05:57:46.582Z,16320
2018-08-18T05:58:27.006Z,17088
2018-08-18T05:59:07.432Z,18144
2018-08-18T05:59:47.910Z,18624
2018-08-18T06:00:28.259Z,18464
2018-08-18T06:01:08.669Z,18336
2018-08-18T06:01:49.122Z,18432
2018-08-18T06:02:29.523Z,18944
2018-08-18T06:03:09.914Z,19840
2018-08-18T06:03:50.334Z,19712
2018-08-18T06:04:30.757Z,20160
2018-08-18T06:05:11.157Z,20544
2018-08-18T06:05:51.675Z,20960
2018-08-18T06:06:32.042Z,21184
2018-08-18T06:07:12.469Z,21536
2018-08-18T06:07:52.874Z,21056
2018-08-18T06:08:33.291Z,21408
2018-08-18T06:09:13.692Z,22368
2018-08-18T06:09:54.092Z,23168
2018-08-18T06:10:34.566Z,22464
2018-08-18T06:11:14.937Z,22272
2018-08-18T06:11:55.341Z,22240
2018-08-18T06:12:35.708Z,22528
2018-08-18T06:13:16.097Z,22432
2018-08-18T06:13:56.502Z,22560
2018-08-18T06:14:36.933Z,23648
2018-08-18T06:15:17.343Z,23936
2018-08-18T06:15:57.683Z,23296
2018-08-18T06:16:38.154Z,22496
2018-08-18T06:17:18.561Z,22624
2018-08-18T06:17:58.955Z,24576
2018-08-18T06:18:39.378Z,25056
2018-08-18T06:19:19.803Z,23936
2018-08-18T06:20:00.204Z,24768
2018-08-18T06:20:40.585Z,24800
2018-08-18T06:21:20.969Z,24800
2018-08-18T06:22:01.410Z,24288
2018-08-18T06:22:41.812Z,25440
2018-08-18T06:23:22.342Z,25952
2018-08-18T06:26:21.134Z,25856
2018-08-18T06:27:01.513Z,25632
2018-08-18T06:27:41.929Z,25152
2018-08-18T06:28:22.376Z,26048
2018-08-18T06:29:02.945Z,26624
2018-08-18T06:29:43.325Z,26944
2018-08-18T06:30:23.694Z,28288
2018-08-18T06:31:04.117Z,28672
2018-08-18T06:31:44.493Z,29664
2018-08-18T06:32:24.886Z,29888
2018-08-18T06:33:05.371Z,29856
2018-08-18T06:33:45.729Z,29984
2018-08-18T06:34:26.223Z,30720
2018-08-18T06:35:06.646Z,31680
2018-08-18T06:35:47.053Z,33216
2018-08-18T06:36:27.484Z,34496
2018-08-18T06:37:07.879Z,34912
2018-08-18T06:37:48.329Z,34752
2018-08-18T06:38:28.701Z,34304
2018-08-18T06:39:09.125Z,33920
2018-08-18T06:39:49.479Z,33568
2018-08-18T06:40:29.883Z,31616
2018-08-18T06:41:10.485Z,29440
2018-08-18T06:41:50.758Z,28288
2018-08-18T06:42:31.158Z,27488
2018-08-18T06:43:11.568Z,26528
2018-08-18T06:43:51.952Z,25120
2018-08-18T06:44:32.365Z,25184
2018-08-18T06:45:12.779Z,23808
2018-08-18T06:45:53.203Z,23712
2018-08-18T06:46:33.603Z,23712
2018-08-18T06:47:14.064Z,23712
2018-08-18T06:54:39.882Z,18112
2018-08-18T06:55:20.321Z,17504
2018-08-18T06:56:00.675Z,17248
2018-08-18T06:56:41.091Z,17248
2018-08-18T06:57:21.475Z,17472
2018-08-18T06:58:01.978Z,18336
2018-08-18T06:58:42.338Z,20096
2018-08-18T06:59:22.824Z,21536
2018-08-18T07:00:03.148Z,22528
2018-08-18T07:00:43.550Z,22720
2018-08-18T07:01:24.016Z,22624
2018-08-18T07:02:04.419Z,22304
2018-08-18T07:02:44.840Z,21312
2018-08-18T07:03:25.259Z,21184
2018-08-18T07:04:05.606Z,21568
2018-08-18T07:04:46.030Z,21216
2018-08-18T07:05:26.479Z,21504
2018-08-18T07:06:06.836Z,21888
2018-08-18T07:06:47.211Z,22144
2018-08-18T07:07:27.668Z,22112
2018-08-18T07:08:08.084Z,21792
2018-08-18T07:08:48.556Z,21824
2018-08-18T07:09:28.863Z,21792
2018-08-18T07:10:09.296Z,21600
2018-08-18T07:10:49.853Z,22144
2018-08-18T07:11:30.201Z,22336
2018-08-18T07:12:10.777Z,21824
2018-08-18T07:12:51.181Z,21920
2018-08-18T07:13:31.630Z,22240
2018-08-18T07:14:11.985Z,22304
2018-08-18T07:14:52.391Z,22400
2018-08-18T07:19:16.275Z,12108
2018-08-18T07:19:56.714Z,12804
2018-08-18T07:20:37.056Z,13264
2018-08-18T07:21:17.465Z,13428
2018-08-18T07:21:57.868Z,13500
2018-08-18T07:22:38.340Z,13588
2018-08-18T07:23:18.696Z,13516
2018-08-18T07:23:59.093Z,13876
2018-08-18T07:24:39.498Z,13832
2018-08-18T07:25:19.986Z,13688
2018-08-18T07:26:00.345Z,13588
2018-08-18T07:26:40.723Z,13500
2018-08-18T07:27:21.237Z,13772
2018-08-18T07:28:01.584Z,13768
2018-08-18T07:28:42.000Z,13540
2018-08-18T07:29:22.622Z,12804
2018-08-18T07:30:03.023Z,10692
2018-08-18T07:30:43.407Z,8444
2018-08-18T07:31:23.843Z,7192
2018-08-18T07:32:04.261Z,6924
2018-08-18T07:32:44.636Z,6840
2018-08-18T07:33:25.059Z,6692
2018-08-18T07:34:05.443Z,6548
2018-08-18T07:34:45.901Z,6484
2018-08-18T07:35:26.323Z,6384
2018-08-18T07:36:06.691Z,6320
2018-08-18T07:36:47.048Z,6188
2018-08-18T07:37:27.515Z,6060
2018-08-18T07:38:07.856Z,5984
2018-08-18T07:38:48.305Z,5908
2018-08-18T07:39:28.740Z,5816
2018-08-18T07:40:09.083Z,5708
2018-08-18T07:40:49.530Z,5672
2018-08-18T07:41:29.932Z,5728
2018-08-18T07:42:10.322Z,5692
2018-08-18T07:42:50.740Z,5584
2018-08-18T07:43:31.166Z,5440
2018-08-18T07:44:11.635Z,5316
2018-08-18T07:44:52.033Z,5176
2018-08-18T07:45:32.377Z,5064
2018-08-18T07:46:12.850Z,4984
2018-08-18T07:46:53.176Z,4912
2018-08-18T07:47:33.608Z,4852
2018-08-18T07:48:14.014Z,4816
2018-08-18T07:48:54.417Z,4748
2018-08-18T07:49:34.806Z,4700
2018-08-18T07:50:15.359Z,4632
2018-08-18T07:50:55.765Z,4568
2018-08-18T07:51:36.155Z,4480
2018-08-18T07:52:16.565Z,4432
2018-08-18T07:52:57.070Z,4396
2018-08-18T07:53:37.518Z,4360
2018-08-18T07:54:17.870Z,4340
2018-08-18T07:54:58.291Z,4328
2018-08-18T07:55:38.757Z,4308
2018-08-18T07:56:19.079Z,4292
2018-08-18T07:56:59.554Z,4280
2018-08-18T07:57:39.948Z,4256
2018-08-18T07:58:20.406Z,4232
2018-08-18T08:01:38.419Z,4108
2018-08-18T08:02:18.793Z,4072
2018-08-18T08:02:59.329Z,4044
2018-08-18T08:03:39.645Z,4012
2018-08-18T08:04:20.067Z,3992
2018-08-18T08:05:00.451Z,3956
2018-08-18T08:05:40.893Z,3916
2018-08-18T08:06:21.295Z,3880
2018-08-18T08:07:01.830Z,3852
2018-08-18T08:07:42.291Z,3824
2018-08-18T08:08:22.652Z,3808
2018-08-18T08:09:03.067Z,3784
2018-08-18T08:09:43.403Z,3772
2018-08-18T08:10:23.828Z,3756
2018-08-18T08:11:04.297Z,3736
2018-08-18T08:11:44.708Z,3712
2018-08-18T08:12:25.132Z,3680
2018-08-18T08:13:05.483Z,3660
2018-08-18T08:13:45.873Z,3640
2018-08-18T08:14:26.297Z,3628
2018-08-18T08:15:06.776Z,3600
2018-08-18T08:15:47.192Z,3588
2018-08-18T08:16:27.659Z,3572
2018-08-18T08:17:08.026Z,3556
2018-08-18T08:17:48.439Z,3540
2018-08-18T08:18:28.850Z,3524
2018-08-18T08:19:09.246Z,3512
2018-08-18T08:19:49.686Z,3500
2018-08-18T08:20:30.091Z,3488
2018-08-18T08:21:10.507Z,3472
2018-08-18T08:21:50.950Z,3460
2018-08-18T08:22:31.356Z,3436
2018-08-18T08:23:11.770Z,3416
2018-08-18T08:23:52.196Z,3400
2018-08-18T08:24:32.607Z,3388
2018-08-18T08:25:12.999Z,3364
2018-08-18T08:25:53.405Z,3348
2018-08-18T08:26:33.943Z,3344
2018-08-18T08:27:14.256Z,3336
2018-08-18T08:27:54.632Z,3328
2018-08-18T08:28:35.032Z,3328
2018-08-18T08:29:15.507Z,3324
2018-08-18T08:29:55.995Z,3316
2018-08-18T08:30:36.473Z,3308
2018-08-18T08:31:17.165Z,3300
2018-08-18T08:31:58.268Z,3300
2018-08-18T08:32:38.125Z,3308
2018-08-18T08:33:18.537Z,3304
2018-08-18T08:33:59.080Z,3288
2018-08-18T08:34:39.588Z,3288
2018-08-18T08:35:20.327Z,3288
2018-08-18T08:36:00.792Z,3276
2018-08-18T08:36:41.509Z,3268
2018-08-18T08:37:21.940Z,3252
2018-08-18T08:38:02.400Z,3252
2018-08-18T08:38:42.914Z,3244
2018-08-18T08:39:23.428Z,3236
2018-08-18T08:40:04.186Z,3240
2018-08-18T08:40:45.817Z,3240
2018-08-18T08:41:26.238Z,3232
2018-08-18T08:42:07.233Z,3228
2018-08-18T08:42:47.332Z,3220
2018-08-18T08:43:27.834Z,3208
2018-08-18T08:44:09.287Z,3196
2018-08-18T08:44:48.950Z,3184
2018-08-18T08:45:29.386Z,3184
2018-08-18T08:46:09.959Z,3180
2018-08-18T08:46:50.401Z,3172
2018-08-18T08:47:31.085Z,3176
2018-08-18T08:48:12.263Z,3176
2018-08-18T08:48:52.208Z,3172
2018-08-18T08:49:33.814Z,3168
2018-08-18T08:50:13.450Z,3156
2018-08-18T08:50:53.855Z,3136
2018-08-18T08:51:35.247Z,3104
2018-08-18T08:52:15.165Z,3076
2018-08-18T08:52:56.418Z,3056
2018-08-18T08:53:36.917Z,3036
2018-08-18T08:54:17.524Z,3016
2018-08-18T08:54:57.970Z,3000
2018-08-18T08:55:38.626Z,2988
2018-08-18T08:56:19.049Z,2984
2018-08-18T08:56:59.566Z,2976
2018-08-18T08:57:39.952Z,2948
2018-08-18T08:58:20.432Z,2936
2018-08-18T08:59:00.868Z,2940
2018-08-18T08:59:41.296Z,2920
2018-08-18T09:00:21.831Z,2904
2018-08-18T09:01:02.300Z,2904
2018-08-18T09:01:43.562Z,2888
2018-08-18T09:02:24.137Z,2904
2018-08-18T09:03:05.319Z,2904
2018-08-18T09:03:45.737Z,2936
2018-08-18T09:04:26.240Z,2944
2018-08-18T09:05:06.705Z,2944
2018-08-18T09:05:48.579Z,2936
2018-08-18T09:06:28.358Z,2928
2018-08-18T09:07:08.802Z,2920
2018-08-18T09:07:49.222Z,2908
2018-08-18T09:08:30.957Z,2892
2018-08-18T09:09:10.484Z,2876
2018-08-18T09:09:50.978Z,2864
2018-08-18T09:10:31.515Z,2852
2018-08-18T09:11:11.841Z,2828
2018-08-18T09:11:52.270Z,2804
2018-08-18T09:12:32.746Z,2800
2018-08-18T09:13:13.254Z,2776
2018-08-18T09:13:55.515Z,2744
2018-08-18T09:14:35.981Z,2700
2018-08-18T09:15:16.720Z,2708
2018-08-18T09:15:57.151Z,2708
2018-08-18T09:16:37.836Z,2680
2018-08-18T09:17:18.601Z,2684
2018-08-18T09:17:59.093Z,2660
2018-08-18T09:18:39.642Z,2652
2018-08-18T09:19:20.677Z,2628
2018-08-18T09:20:02.277Z,2608
2018-08-18T09:20:41.951Z,2620
2018-08-18T09:21:22.549Z,2620
2018-08-18T09:22:03.015Z,2636
2018-08-18T09:22:43.560Z,2636
2018-08-18T09:23:24.294Z,2632
2018-08-18T09:24:04.853Z,2624
2018-08-18T09:24:45.266Z,2616
2018-08-18T09:25:25.824Z,2608
2018-08-18T09:26:06.318Z,2592
2018-08-18T09:26:46.728Z,2584
2018-08-18T09:27:27.260Z,2572
2018-08-18T09:28:07.537Z,2556
2018-08-18T09:28:48.028Z,2540
2018-08-18T09:29:28.417Z,2528
2018-08-18T09:30:09.117Z,2524
2018-08-18T09:30:49.327Z,2520
2018-08-18T09:31:29.780Z,2512
2018-08-18T09:35:16.841Z,2456
2018-08-18T09:35:58.585Z,2444
2018-08-18T09:36:38.968Z,2436
2018-08-18T09:37:19.355Z,2436
2018-08-18T09:43:40.585Z,2340
2018-08-18T09:44:20.975Z,2332
2018-08-18T09:45:01.384Z,2324
2018-08-18T09:45:41.746Z,2308
2018-08-18T09:46:22.268Z,2296
2018-08-18T09:47:02.597Z,2280
2018-08-18T09:47:43.155Z,2264
2018-08-18T09:48:23.522Z,2252
2018-08-18T09:49:04.044Z,2248
2018-08-18T09:49:44.428Z,2232
2018-08-18T09:50:24.759Z,2216
2018-08-18T09:51:05.297Z,2208
2018-08-18T09:51:45.692Z,2204
2018-08-18T09:52:26.118Z,2204
2018-08-18T09:53:06.562Z,2204
2018-08-18T09:53:46.941Z,2204
2018-08-18T09:54:27.375Z,2212
2018-08-18T09:55:07.737Z,2184
2018-08-18T09:55:48.166Z,2176
2018-08-18T09:56:28.572Z,2136
2018-08-18T09:57:09.015Z,2124
2018-08-18T09:57:49.435Z,2108
2018-08-18T09:58:29.831Z,2096
2018-08-18T09:59:10.308Z,2132
2018-08-18T09:59:50.642Z,2136
2018-08-18T10:00:31.031Z,2132
2018-08-18T10:01:11.461Z,2116
2018-08-18T10:01:51.866Z,2108
2018-08-18T10:02:32.244Z,2100
2018-08-18T10:03:12.653Z,2112
2018-08-18T10:03:53.143Z,2100
2018-08-18T10:04:33.470Z,2084
2018-08-18T10:05:13.931Z,2080
2018-08-18T10:05:54.347Z,2096
2018-08-18T10:06:34.836Z,2108
2018-08-18T10:07:15.160Z,2104
2018-08-18T10:07:55.617Z,2108
2018-08-18T10:08:36.037Z,2100
2018-08-18T10:09:16.505Z,2100
2018-08-18T10:09:57.000Z,2096
2018-08-18T10:10:37.401Z,2096
2018-08-18T10:11:17.851Z,2084
2018-08-18T10:11:58.551Z,2088
2018-08-18T10:12:39.002Z,2092
2018-08-18T10:13:19.418Z,2084
2018-08-18T10:13:59.935Z,2068
2018-08-18T10:14:40.570Z,2060
2018-08-18T10:15:21.479Z,2052
2018-08-18T10:16:01.926Z,2048
2018-08-18T10:16:42.316Z,2052
2018-08-18T10:17:22.751Z,2040
2018-08-18T10:18:03.181Z,2024
2018-08-18T10:18:43.640Z,2020
2018-08-18T10:19:24.007Z,2012
2018-08-18T10:20:04.489Z,1996
2018-08-18T10:20:45.035Z,1980
2018-08-18T10:21:25.352Z,1968
2018-08-18T10:22:05.742Z,1996
2018-08-18T10:22:46.233Z,1984
2018-08-18T10:23:26.651Z,1980
2018-08-18T10:24:07.079Z,1960
2018-08-18T10:24:47.495Z,1944
2018-08-18T10:25:27.971Z,1928
2018-08-18T10:26:08.510Z,1928
2018-08-18T10:26:50.477Z,1932
2018-08-18T10:27:30.864Z,1920
2018-08-18T10:28:13.327Z,1900
2018-08-18T10:28:53.733Z,1904
2018-08-18T11:07:50.042Z,1868
2018-08-18T11:08:30.200Z,1868
2018-08-18T11:09:10.636Z,1868
2018-08-18T11:09:51.046Z,1868
2018-08-18T11:10:31.486Z,1868
2018-08-18T11:11:11.889Z,1872
2018-08-18T11:11:52.408Z,1876
2018-08-18T11:12:32.733Z,1868
2018-08-18T11:13:13.117Z,1864
2018-08-18T11:13:53.561Z,1848
2018-08-18T11:14:33.914Z,1836
2018-08-18T11:15:14.778Z,1840
2018-08-18T11:15:55.426Z,1840